createdAt,value
2022-08-05T00:00:25.842Z,52.52
2022-08-05T00:02:54.038Z,53.31
2022-08-05T00:05:27.246Z,53.83
2022-08-05T00:08:30.811Z,53.67
2022-08-05T00:11:01.210Z,54.43
2022-08-05T00:13:38.431Z,55.41
2022-08-05T00:16:12.586Z,56.62
2022-08-05T00:18:42.601Z,57.70
2022-08-05T00:21:14.299Z,58.84
2022-08-05T00:23:53.646Z,59.55
2022-08-05T00:26:34.495Z,60.54
2022-08-05T00:29:03.187Z,60.85
2022-08-05T00:31:54.475Z,61.37
2022-08-05T00:34:56.203Z,61.96
2022-08-05T00:37:12.461Z,62.01
2022-08-05T00:39:57.474Z,62.13
2022-08-05T00:42:34.541Z,61.93
2022-08-05T00:45:03.600Z,62.11
2022-08-05T00:47:57.338Z,62.06
2022-08-05T00:50:20.861Z,62.32
2022-08-05T00:52:49.471Z,62.14
2022-08-05T00:55:19.127Z,62.07
2022-08-05T00:57:58.325Z,62.15
2022-08-05T01:00:28.562Z,62.26
2022-08-05T01:02:56.898Z,62.01
2022-08-05T01:05:27.398Z,61.78
2022-08-05T01:08:40.259Z,61.20
2022-08-05T01:10:51.821Z,61.76
2022-08-05T01:13:59.187Z,61.96
2022-08-05T01:16:26.531Z,61.62
2022-08-05T01:19:00.844Z,62.12
2022-08-05T01:21:50.675Z,61.29
2022-08-05T01:24:38.685Z,60.42
2022-08-05T01:27:24.110Z,59.97
2022-08-05T01:29:57.704Z,59.71
2022-08-05T01:32:30.071Z,59.39
2022-08-05T01:35:00.720Z,60.33
2022-08-05T01:37:34.411Z,58.92
2022-08-05T01:40:08.131Z,60.06
2022-08-05T01:42:39.341Z,59.33
2022-08-05T01:45:11.873Z,59.67
2022-08-05T01:47:47.844Z,59.55
2022-08-05T01:50:19.874Z,58.61
2022-08-05T01:53:02.066Z,56.72
2022-08-05T01:55:36.213Z,55.95
2022-08-05T01:58:10.384Z,55.53
2022-08-05T02:00:49.279Z,55.07
2022-08-05T02:03:24.368Z,54.34
2022-08-05T02:06:03.685Z,55.60
2022-08-05T02:08:58.576Z,55.80
2022-08-05T02:11:32.909Z,56.05
2022-08-05T02:14:06.317Z,57.34
2022-08-05T02:16:41.985Z,58.39
2022-08-05T02:19:19.386Z,58.56
2022-08-05T02:21:55.700Z,58.10
2022-08-05T02:24:28.605Z,57.73
2022-08-05T02:27:10.077Z,57.85
2022-08-05T02:29:59.993Z,57.54
2022-08-05T02:32:32.964Z,56.97
2022-08-05T02:35:13.333Z,56.11
2022-08-05T02:37:47.854Z,55.45
2022-08-05T02:40:24.357Z,55.33
2022-08-05T02:42:56.845Z,57.21
2022-08-05T02:45:29.010Z,57.66
2022-08-05T02:48:20.098Z,59.37
2022-08-05T02:51:00.230Z,61.31
2022-08-05T02:53:35.923Z,61.09
2022-08-05T02:56:16.034Z,61.61
2022-08-05T02:58:51.503Z,63.27
2022-08-05T03:01:26.920Z,67.89
2022-08-05T03:04:03.158Z,72.49
2022-08-05T03:06:54.726Z,72.65
2022-08-05T03:09:27.186Z,76.59
2022-08-05T03:12:07.813Z,77.19
2022-08-05T03:14:40.897Z,80.38
2022-08-05T03:17:14.258Z,80.67
2022-08-05T03:19:45.576Z,79.98
2022-08-05T03:22:16.326Z,83.90
2022-08-05T03:24:50.977Z,86.15
2022-08-05T03:27:22.516Z,89.46
2022-08-05T03:30:08.493Z,88.61
2022-08-05T03:32:37.820Z,86.39
2022-08-05T03:35:09.264Z,90.53
2022-08-05T03:37:46.244Z,96.05
2022-08-05T03:40:24.580Z,98.72
2022-08-05T03:43:01.532Z,100.00
2022-08-05T03:45:58.316Z,100.00
2022-08-05T03:48:27.423Z,100.00
2022-08-05T03:52:35.126Z,100.00
2022-08-05T03:56:01.935Z,100.00
2022-08-05T03:56:49.922Z,100.00
2022-08-05T03:59:23.178Z,100.00
2022-08-05T04:01:59.075Z,100.00
2022-08-05T04:04:29.027Z,100.00
2022-08-05T04:07:00.514Z,100.00
2022-08-05T04:09:30.454Z,100.00
2022-08-05T04:12:04.942Z,100.00
2022-08-05T04:14:52.143Z,100.00
2022-08-05T04:17:20.266Z,100.00
2022-08-05T04:19:54.224Z,100.00
2022-08-05T04:22:24.181Z,100.00
2022-08-05T04:24:55.156Z,100.00
2022-08-05T04:27:41.606Z,100.00
2022-08-05T04:30:12.239Z,100.00
2022-08-05T04:32:40.265Z,100.00
2022-08-05T04:35:17.559Z,100.00
2022-08-05T04:38:02.769Z,100.00
2022-08-05T04:40:36.230Z,100.00
2022-08-05T04:43:05.471Z,100.00
2022-08-05T04:45:49.037Z,100.00
2022-08-05T04:48:27.198Z,100.00
2022-08-05T04:51:02.669Z,100.00
2022-08-05T04:53:40.090Z,100.00
2022-08-05T04:56:33.983Z,100.00
2022-08-05T04:58:57.788Z,100.00
2022-08-05T05:01:33.604Z,100.00
2022-08-05T05:04:14.574Z,100.00
2022-08-05T05:06:49.320Z,100.00
2022-08-05T05:09:23.218Z,100.00
2022-08-05T05:11:54.499Z,100.00
2022-08-05T05:14:31.593Z,100.00
2022-08-05T05:17:00.597Z,100.00
2022-08-05T05:19:36.822Z,100.00
2022-08-05T05:22:22.858Z,100.00
2022-08-05T05:24:58.849Z,100.00
2022-08-05T05:27:45.015Z,100.00
2022-08-05T05:30:29.372Z,98.58
2022-08-05T05:33:09.016Z,98.58
2022-08-05T05:35:45.936Z,98.43
2022-08-05T05:38:14.555Z,95.98
2022-08-05T05:40:49.855Z,94.49
2022-08-05T05:43:27.560Z,91.64
2022-08-05T05:46:13.760Z,89.26
2022-08-05T05:48:48.268Z,88.71
2022-08-05T05:51:21.470Z,86.83
2022-08-05T05:53:57.409Z,85.86
2022-08-05T05:56:33.185Z,85.03
2022-08-05T05:59:05.676Z,82.06
2022-08-05T06:01:37.506Z,79.79
2022-08-05T06:04:11.978Z,79.02
2022-08-05T06:06:42.882Z,78.04
2022-08-05T06:09:17.667Z,76.69
2022-08-05T06:12:01.146Z,73.85
2022-08-05T06:14:31.435Z,72.58
2022-08-05T06:17:01.906Z,72.79
2022-08-05T06:19:57.129Z,73.09
2022-08-05T06:22:30.184Z,71.51
2022-08-05T06:25:59.027Z,71.22
2022-08-05T06:28:12.510Z,71.58
2022-08-05T06:30:39.492Z,69.00
2022-08-05T06:33:10.748Z,66.55
2022-08-05T06:36:08.324Z,64.84
2022-08-05T06:38:35.786Z,65.01
2022-08-05T06:41:07.651Z,64.08
2022-08-05T06:43:51.441Z,64.73
2022-08-05T06:46:30.335Z,65.36
2022-08-05T06:48:59.686Z,65.42
2022-08-05T06:51:31.534Z,65.23
2022-08-05T06:53:59.976Z,69.05
2022-08-05T06:56:28.022Z,71.20
2022-08-05T06:58:57.653Z,74.14
2022-08-05T07:01:27.732Z,78.73
2022-08-05T07:04:02.374Z,85.29
2022-08-05T07:06:31.970Z,90.31
2022-08-05T07:09:00.322Z,95.12
2022-08-05T07:11:33.063Z,95.86
2022-08-05T07:14:29.522Z,97.00
2022-08-05T07:17:58.470Z,96.57
2022-08-05T07:22:41.975Z,99.36
2022-08-05T07:25:55.429Z,98.81
2022-08-05T07:30:40.001Z,96.42
2022-08-05T07:33:16.825Z,97.17
2022-08-05T07:36:02.439Z,95.60
2022-08-05T07:38:42.577Z,95.32
2022-08-05T07:42:07.028Z,94.76
2022-08-05T07:44:03.089Z,93.63
2022-08-05T07:46:33.923Z,94.32
2022-08-05T07:49:05.819Z,95.26
2022-08-05T07:51:40.798Z,95.58
2022-08-05T07:54:16.723Z,95.50
2022-08-05T07:57:01.931Z,95.28
2022-08-05T07:59:40.260Z,95.52
2022-08-05T08:02:16.771Z,95.68
2022-08-05T08:04:48.686Z,95.74
2022-08-05T08:07:18.277Z,95.61
2022-08-05T08:09:52.554Z,96.50
2022-08-05T08:12:37.115Z,97.37
2022-08-05T08:15:15.206Z,97.16
2022-08-05T08:17:52.402Z,96.01
2022-08-05T08:21:00.163Z,94.76
2022-08-05T08:23:20.980Z,92.88
2022-08-05T08:28:36.350Z,93.86
2022-08-05T08:31:16.424Z,93.04
2022-08-05T08:33:51.686Z,92.69
2022-08-05T08:36:37.557Z,92.61
2022-08-05T08:39:15.134Z,92.67
2022-08-05T08:41:50.741Z,92.23
2022-08-05T08:45:20.004Z,91.35
2022-08-05T08:47:47.179Z,91.18
2022-08-05T08:50:31.826Z,92.50
2022-08-05T08:52:58.293Z,91.78
2022-08-05T08:56:01.756Z,90.78
2022-08-05T08:58:16.813Z,91.39
2022-08-05T09:00:45.131Z,91.86
2022-08-05T09:03:16.178Z,87.82
2022-08-05T09:06:07.739Z,82.01
2022-08-05T09:08:40.188Z,74.87
2022-08-05T09:11:12.309Z,71.34
2022-08-05T09:14:00.803Z,68.93
2022-08-05T09:16:32.601Z,67.27
2022-08-05T09:19:01.150Z,68.43
2022-08-05T09:22:18.369Z,69.28
2022-08-05T09:24:24.775Z,67.32
2022-08-05T09:26:56.312Z,66.20
2022-08-05T09:29:47.724Z,66.62
2022-08-05T09:32:40.245Z,65.32
2022-08-05T09:35:26.590Z,62.88
2022-08-05T09:38:16.986Z,62.34
2022-08-05T09:40:52.278Z,62.18
2022-08-05T09:43:40.710Z,59.14
2022-08-05T09:46:27.963Z,58.87
2022-08-05T09:49:07.887Z,57.38
2022-08-05T09:51:48.960Z,56.41
2022-08-05T09:54:32.177Z,54.34
2022-08-05T09:57:03.264Z,54.97
2022-08-05T09:59:48.868Z,54.00
2022-08-05T10:02:32.290Z,51.70
2022-08-05T10:05:06.218Z,55.89
2022-08-05T10:08:36.962Z,57.25
2022-08-05T10:10:54.531Z,62.08
2022-08-05T10:13:31.584Z,64.04
2022-08-05T10:16:29.500Z,58.26
2022-08-05T10:18:58.714Z,59.99
2022-08-05T10:21:27.420Z,62.17
2022-08-05T10:24:11.000Z,59.19
2022-08-05T10:26:51.312Z,56.90
2022-08-05T10:29:24.193Z,53.10
2022-08-05T10:32:53.605Z,53.14
2022-08-05T10:35:00.907Z,47.46
2022-08-05T10:37:40.363Z,43.88
2022-08-05T10:40:27.809Z,43.18
2022-08-05T10:43:01.672Z,44.43
2022-08-05T10:45:40.219Z,45.50
2022-08-05T10:48:35.090Z,44.71
2022-08-05T10:51:22.074Z,44.10
2022-08-05T10:53:55.639Z,40.18
2022-08-05T10:56:26.285Z,41.20
2022-08-05T10:59:12.611Z,43.76
2022-08-05T11:02:14.685Z,43.01
2022-08-05T11:04:57.181Z,41.24
2022-08-05T11:07:33.003Z,43.32
2022-08-05T11:10:23.098Z,47.79
2022-08-05T11:12:57.207Z,47.89
2022-08-05T11:16:00.174Z,47.11
2022-08-05T11:18:32.244Z,47.56
2022-08-05T11:21:06.136Z,48.03
2022-08-05T11:24:04.965Z,47.61
2022-08-05T11:26:33.311Z,46.49
2022-08-05T11:29:13.498Z,46.68
2022-08-05T11:31:57.115Z,43.65
2022-08-05T11:34:50.831Z,38.94
2022-08-05T11:38:26.269Z,44.04
2022-08-05T11:41:14.008Z,41.76
2022-08-05T11:44:01.084Z,41.20
2022-08-05T11:46:35.466Z,38.01
2022-08-05T11:49:08.083Z,42.39
2022-08-05T11:51:44.380Z,41.75
2022-08-05T11:54:33.619Z,42.80
2022-08-05T11:57:07.987Z,44.08
2022-08-05T11:59:53.438Z,38.95
2022-08-05T12:02:31.735Z,37.53
2022-08-05T12:05:07.027Z,39.25
2022-08-05T12:08:08.694Z,36.68
2022-08-05T12:10:43.763Z,35.74
2022-08-05T12:13:16.565Z,39.70
2022-08-05T12:15:49.854Z,41.43
2022-08-05T12:18:33.046Z,38.92
2022-08-05T12:21:12.426Z,37.23
2022-08-05T12:23:43.204Z,36.45
2022-08-05T12:26:11.571Z,34.79
2022-08-05T12:28:39.958Z,32.26
2022-08-05T12:31:08.174Z,33.63
2022-08-05T12:33:38.621Z,33.84
2022-08-05T12:36:09.197Z,36.56
2022-08-05T12:38:41.369Z,34.00
2022-08-05T12:41:13.338Z,36.56
2022-08-05T12:43:56.300Z,42.83
2022-08-05T12:46:29.426Z,45.71
2022-08-05T12:49:13.248Z,46.47
2022-08-05T12:52:13.585Z,45.72
2022-08-05T12:54:36.870Z,45.63
2022-08-05T12:57:09.419Z,42.30
2022-08-05T13:00:08.723Z,39.78
2022-08-05T13:02:37.673Z,35.52
2022-08-05T13:05:11.023Z,38.59
2022-08-05T13:07:59.948Z,35.57
2022-08-05T13:10:33.069Z,36.22
2022-08-05T13:13:00.872Z,39.32
2022-08-05T13:15:41.274Z,39.93
2022-08-05T13:18:19.621Z,39.54
2022-08-05T13:20:50.053Z,40.12
2022-08-05T13:23:22.536Z,41.31
2022-08-05T13:25:59.513Z,43.52
2022-08-05T13:28:32.040Z,48.31
2022-08-05T13:31:03.365Z,49.29
2022-08-05T13:34:22.858Z,47.52
2022-08-05T13:36:26.986Z,43.91
2022-08-05T13:38:57.319Z,46.74
2022-08-05T13:41:36.105Z,46.38
2022-08-05T13:44:06.055Z,45.77
2022-08-05T13:46:43.852Z,46.29
2022-08-05T13:49:21.811Z,47.55
2022-08-05T13:51:50.094Z,51.59
2022-08-05T13:54:25.163Z,53.11
2022-08-05T13:56:55.091Z,55.18
2022-08-05T13:59:26.932Z,54.58
2022-08-05T14:01:57.444Z,52.43
2022-08-05T14:04:51.349Z,49.38
2022-08-05T14:07:26.439Z,49.62
2022-08-05T14:10:11.481Z,53.06
2022-08-05T14:12:43.079Z,53.54
2022-08-05T14:16:08.864Z,54.87
2022-08-05T14:18:06.067Z,56.37
2022-08-05T14:20:47.089Z,59.55
2022-08-05T14:23:24.663Z,61.80
2022-08-05T14:25:58.174Z,64.15
2022-08-05T14:28:32.467Z,63.61
2022-08-05T14:31:01.705Z,64.60
2022-08-05T14:33:56.537Z,65.37
2022-08-05T14:36:20.576Z,66.98
2022-08-05T14:38:50.562Z,67.78
2022-08-05T14:41:19.202Z,69.75
2022-08-05T14:44:00.309Z,68.23
2022-08-05T14:46:35.322Z,68.75
2022-08-05T14:49:07.180Z,64.71
2022-08-05T14:51:37.809Z,67.20
2022-08-05T14:54:27.150Z,68.92
2022-08-05T14:56:54.862Z,68.75
2022-08-05T14:59:24.709Z,69.26
2022-08-05T15:01:53.714Z,68.36
2022-08-05T15:04:22.837Z,68.67
2022-08-05T15:06:51.698Z,68.02
2022-08-05T15:09:51.388Z,66.19
2022-08-05T15:12:16.318Z,67.08
2022-08-05T15:14:50.203Z,68.33
2022-08-05T15:17:45.896Z,68.16
2022-08-05T15:20:18.977Z,68.15
2022-08-05T15:22:55.313Z,67.54
2022-08-05T15:25:41.192Z,68.01
2022-08-05T15:28:13.375Z,69.11
2022-08-05T15:30:45.784Z,71.17
2022-08-05T15:33:56.666Z,70.51
2022-08-05T15:36:04.840Z,69.58
2022-08-05T15:38:41.041Z,69.18
2022-08-05T15:41:22.413Z,70.06
2022-08-05T15:46:25.582Z,72.43
2022-08-05T15:48:57.887Z,72.83
2022-08-05T15:52:12.939Z,72.78
2022-08-05T15:54:18.635Z,72.62
2022-08-05T15:56:48.526Z,71.79
2022-08-05T15:59:20.199Z,71.65
2022-08-05T16:01:53.404Z,71.00
2022-08-05T16:04:25.183Z,71.88
2022-08-05T16:06:53.327Z,71.39
2022-08-05T16:09:22.872Z,70.61
2022-08-05T16:11:53.155Z,69.84
2022-08-05T16:14:22.567Z,70.06
2022-08-05T16:16:52.276Z,70.42
2022-08-05T16:20:03.034Z,70.16
2022-08-05T16:22:10.820Z,69.67
2022-08-05T16:24:51.738Z,70.11
2022-08-05T16:27:47.295Z,69.08
2022-08-05T16:30:25.760Z,69.51
2022-08-05T16:32:56.115Z,68.56
2022-08-05T16:35:28.065Z,68.58
2022-08-05T16:38:15.745Z,68.54
2022-08-05T16:40:52.298Z,68.72
2022-08-05T16:43:25.066Z,68.12
2022-08-05T16:46:06.860Z,68.03
2022-08-05T16:48:44.686Z,68.89
2022-08-05T16:51:13.825Z,68.50
2022-08-05T16:54:04.215Z,68.51
2022-08-05T16:56:33.811Z,67.97
2022-08-05T16:59:08.525Z,67.84
2022-08-05T17:01:54.084Z,66.77
2022-08-05T17:04:27.223Z,66.05
2022-08-05T17:07:00.066Z,64.20
2022-08-05T17:09:30.052Z,64.31
2022-08-05T17:11:59.703Z,64.96
2022-08-05T17:14:37.748Z,64.88
2022-08-05T17:17:14.643Z,65.61
2022-08-05T17:19:46.429Z,65.80
2022-08-05T17:22:17.923Z,65.94
2022-08-05T17:24:57.866Z,65.68
2022-08-05T17:27:33.692Z,65.57
2022-08-05T17:30:04.654Z,64.80
2022-08-05T17:32:41.999Z,64.65
2022-08-05T17:35:15.560Z,64.24
2022-08-05T17:37:49.027Z,64.23
2022-08-05T17:40:22.276Z,64.24
2022-08-05T17:42:53.299Z,64.18
2022-08-05T17:45:38.099Z,63.54
2022-08-05T17:48:08.482Z,63.16
2022-08-05T17:50:39.368Z,62.41
2022-08-05T17:53:08.445Z,62.70
2022-08-05T17:55:38.184Z,63.07
2022-08-05T17:58:11.052Z,60.31
2022-08-05T18:00:44.346Z,59.01
2022-08-05T18:03:24.132Z,58.32
2022-08-05T18:06:11.873Z,56.67
2022-08-05T18:08:45.048Z,58.12
2022-08-05T18:11:23.663Z,59.63
2022-08-05T18:13:53.056Z,59.96
2022-08-05T18:16:21.581Z,60.74
2022-08-05T18:18:50.232Z,60.80
2022-08-05T18:21:22.712Z,60.10
2022-08-05T18:23:54.777Z,58.39
2022-08-05T18:26:27.683Z,56.88
2022-08-05T18:28:57.984Z,59.32
2022-08-05T18:31:33.174Z,59.49
2022-08-05T18:34:06.008Z,59.60
2022-08-05T18:36:36.431Z,59.51
2022-08-05T18:39:06.663Z,60.05
2022-08-05T18:41:56.289Z,59.93
2022-08-05T18:44:34.618Z,60.60
2022-08-05T18:47:03.761Z,62.60
2022-08-05T18:49:57.828Z,63.42
2022-08-05T18:52:50.512Z,64.46
2022-08-05T18:55:21.706Z,64.89
2022-08-05T18:57:54.015Z,65.93
2022-08-05T19:00:27.300Z,66.05
2022-08-05T19:03:03.976Z,66.50
2022-08-05T19:06:12.763Z,66.93
2022-08-05T19:08:30.591Z,67.15
2022-08-05T19:11:04.535Z,67.63
2022-08-05T19:13:36.924Z,67.54
2022-08-05T19:16:25.019Z,67.73
2022-08-05T19:18:57.046Z,66.81
2022-08-05T19:21:27.352Z,66.57
2022-08-05T19:24:07.388Z,65.19
2022-08-05T19:26:54.070Z,64.02
2022-08-05T19:29:23.792Z,62.75
2022-08-05T19:31:57.349Z,62.04
2022-08-05T19:34:26.799Z,61.76
2022-08-05T19:36:55.060Z,60.91
2022-08-05T19:39:24.983Z,61.43
2022-08-05T19:42:06.944Z,61.16
2022-08-05T19:44:44.903Z,61.01
2022-08-05T19:47:17.924Z,60.85
2022-08-05T19:49:48.195Z,60.91
2022-08-05T19:52:30.396Z,61.05
2022-08-05T19:56:14.686Z,60.98
2022-08-05T19:58:07.096Z,60.69
2022-08-05T20:00:48.659Z,61.34
2022-08-05T20:03:17.130Z,61.90
2022-08-05T20:05:51.463Z,61.50
2022-08-05T20:08:20.486Z,61.98
2022-08-05T20:10:55.277Z,62.16
2022-08-05T20:13:54.750Z,61.66
2022-08-05T20:16:11.924Z,62.11
2022-08-05T20:18:40.177Z,62.21
2022-08-05T20:21:08.787Z,62.49
2022-08-05T20:23:51.100Z,62.39
2022-08-05T20:26:25.861Z,62.32
2022-08-05T20:29:00.858Z,62.88
2022-08-05T20:31:43.227Z,63.50
2022-08-05T20:34:17.858Z,63.19
2022-08-05T20:36:45.839Z,64.09
2022-08-05T20:39:16.645Z,64.66
2022-08-05T20:41:47.983Z,65.37
2022-08-05T20:44:29.401Z,65.03
2022-08-05T20:46:58.884Z,65.42
2022-08-05T20:49:27.202Z,65.21
2022-08-05T20:51:57.205Z,65.17
2022-08-05T20:54:42.917Z,65.21
2022-08-05T20:57:14.255Z,64.11
2022-08-05T21:00:10.336Z,63.55
2022-08-05T21:02:31.310Z,63.79
2022-08-05T21:05:02.256Z,63.60
2022-08-05T21:07:50.673Z,63.46
2022-08-05T21:10:18.855Z,63.02
2022-08-05T21:12:55.548Z,63.09
2022-08-05T21:15:37.728Z,63.09
2022-08-05T21:18:05.995Z,63.41
2022-08-05T21:20:35.208Z,63.75
2022-08-05T21:23:04.212Z,64.09
2022-08-05T21:25:33.999Z,64.31
2022-08-05T21:28:04.530Z,65.13
2022-08-05T21:30:32.758Z,64.21
2022-08-05T21:33:01.783Z,65.60
2022-08-05T21:35:55.472Z,66.38
2022-08-05T21:38:20.202Z,66.54
2022-08-05T21:40:48.375Z,67.03
2022-08-05T21:43:24.755Z,67.44
2022-08-05T21:45:57.979Z,67.25
2022-08-05T21:48:28.984Z,67.25
2022-08-05T21:51:00.174Z,67.44
2022-08-05T21:53:28.298Z,67.54
2022-08-05T21:56:04.479Z,67.59
2022-08-05T21:58:42.018Z,66.52
2022-08-05T22:01:11.037Z,65.77
2022-08-05T22:03:53.605Z,65.60
2022-08-05T22:06:35.476Z,65.31
2022-08-05T22:09:13.858Z,66.22
2022-08-05T22:11:46.890Z,67.25
2022-08-05T22:14:34.696Z,67.19
2022-08-05T22:17:07.613Z,67.46
2022-08-05T22:20:02.561Z,67.14
2022-08-05T22:22:27.731Z,66.51
2022-08-05T22:25:21.342Z,66.29
2022-08-05T22:28:10.974Z,66.50
2022-08-05T22:30:56.200Z,67.32
2022-08-05T22:33:57.026Z,68.38
2022-08-05T22:36:16.953Z,69.12
2022-08-05T22:38:48.149Z,70.08
2022-08-05T22:42:04.446Z,71.08
2022-08-05T22:44:08.544Z,71.54
2022-08-05T22:46:39.884Z,71.96
2022-08-05T22:49:23.480Z,71.96
2022-08-05T22:52:04.812Z,72.36
2022-08-05T22:54:36.370Z,73.06
2022-08-05T22:57:07.365Z,73.57
2022-08-05T22:59:43.602Z,73.16
2022-08-05T23:02:18.462Z,73.38
2022-08-05T23:05:01.792Z,74.30
2022-08-05T23:07:45.119Z,74.32
2022-08-05T23:10:20.311Z,74.47
2022-08-05T23:12:51.203Z,74.88
2022-08-05T23:15:19.469Z,74.16
2022-08-05T23:18:02.434Z,74.16
2022-08-05T23:20:33.125Z,74.01
2022-08-05T23:23:03.415Z,74.92
2022-08-05T23:25:52.145Z,74.11
2022-08-05T23:28:22.101Z,73.07
2022-08-05T23:30:53.373Z,72.37
2022-08-05T23:33:26.423Z,71.83
2022-08-05T23:36:13.831Z,71.38
2022-08-05T23:38:42.966Z,71.85
2022-08-05T23:41:12.264Z,71.51
2022-08-05T23:44:05.045Z,72.28
2022-08-05T23:46:31.470Z,72.56
2022-08-05T23:49:15.705Z,73.11
2022-08-05T23:52:02.830Z,73.66
2022-08-05T23:54:38.478Z,73.64
2022-08-05T23:57:08.064Z,73.80
